Time;durP1;ratioP1;P1;durP2;ratioP2;P2;SDS_P1;SDS_P2;PMS_P1;PMS_P2;Temp;Humidity;BMP_temperature;BMP_pressure;BME280_temperature;BME280_humidity;BME280_pressure;Samples;Min_cycle;Max_cycle;Signal;HPM_P1;HPM_P2
2021/11/27 00:01:45;;;;;;;5.93;3.20;;;3.70;1.00;;;;;;5065246;28;20075;-65
2021/11/27 00:04:14;;;;;;;4.75;2.70;;;3.70;1.00;;;;;;5064639;28;20159;-65
2021/11/27 00:06:47;;;;;;;4.72;2.80;;;3.80;1.00;;;;;;5062813;28;20049;-65
2021/11/27 00:09:18;;;;;;;4.50;2.45;;;3.70;1.00;;;;;;5062806;28;20717;-66
2021/11/27 00:11:46;;;;;;;4.40;2.90;;;3.70;1.00;;;;;;5079522;28;20093;-65
2021/11/27 00:14:14;;;;;;;4.35;2.60;;;3.70;1.00;;;;;;5063890;28;20045;-64
2021/11/27 00:16:44;;;;;;;5.40;2.97;;;3.70;1.00;;;;;;5064950;28;20041;-65
2021/11/27 00:19:14;;;;;;;4.13;2.75;;;3.70;1.00;;;;;;5065241;28;20047;-65
2021/11/27 00:21:46;;;;;;;3.67;2.50;;;3.70;1.00;;;;;;5062634;28;20122;-66
2021/11/27 00:24:15;;;;;;;3.35;2.53;;;3.70;1.00;;;;;;5048522;28;20398;-65
2021/11/27 00:26:47;;;;;;;3.63;2.47;;;3.70;1.00;;;;;;5054759;28;20075;-64
2021/11/27 00:29:15;;;;;;;5.85;2.50;;;3.70;1.00;;;;;;5058349;28;20418;-65
2021/11/27 00:31:44;;;;;;;4.60;2.58;;;3.70;1.00;;;;;;5062027;28;20043;-65
2021/11/27 00:34:15;;;;;;;4.82;2.50;;;3.70;1.00;;;;;;5068095;28;20409;-65
2021/11/27 00:36:51;;;;;;;5.70;2.72;;;3.70;1.00;;;;;;5085711;28;20075;-65
2021/11/27 00:39:24;;;;;;;3.80;2.30;;;3.70;1.00;;;;;;5079992;28;20070;-65
2021/11/27 00:41:52;;;;;;;4.00;2.45;;;3.70;1.00;;;;;;5080851;28;20101;-65
2021/11/27 00:44:24;;;;;;;5.50;3.03;;;3.70;1.00;;;;;;5082535;28;20106;-65
2021/11/27 00:46:55;;;;;;;3.83;2.63;;;3.80;1.00;;;;;;5083254;28;20074;-65
2021/11/27 00:49:26;;;;;;;4.22;2.67;;;3.70;1.00;;;;;;5085341;28;20040;-65
2021/11/27 00:51:57;;;;;;;5.95;3.10;;;3.70;1.00;;;;;;5077892;28;20429;-65
2021/11/27 00:54:26;;;;;;;3.95;2.38;;;3.70;1.00;;;;;;5079863;28;20070;-65
2021/11/27 00:56:54;;;;;;;4.05;2.50;;;3.70;1.00;;;;;;5084593;28;20549;-65
2021/11/27 00:59:22;;;;;;;4.28;2.60;;;3.70;1.00;;;;;;5083905;28;20050;-65
2021/11/27 01:01:54;;;;;;;3.72;2.60;;;3.70;1.00;;;;;;5079220;28;20514;-65
2021/11/27 01:04:23;;;;;;;2.33;1.88;;;3.70;1.00;;;;;;5076084;28;20055;-66
2021/11/27 01:06:54;;;;;;;5.43;2.85;;;3.70;1.00;;;;;;5082849;28;20223;-64
2021/11/27 01:09:26;;;;;;;3.33;2.22;;;3.70;1.00;;;;;;5084061;28;20089;-65
2021/11/27 01:11:55;;;;;;;4.47;2.70;;;3.60;1.00;;;;;;5081827;28;20066;-65
2021/11/27 01:14:28;;;;;;;4.32;2.80;;;3.70;1.00;;;;;;5079129;28;20036;-65
2021/11/27 01:17:04;;;;;;;4.90;2.72;;;3.60;1.00;;;;;;5084715;28;20066;-65
2021/11/27 01:19:37;;;;;;;4.53;2.90;;;3.60;1.00;;;;;;5085512;28;20083;-65
2021/11/27 01:22:11;;;;;;;5.13;2.97;;;3.60;1.00;;;;;;5079988;28;20052;-65
2021/11/27 01:24:43;;;;;;;5.20;2.90;;;3.60;1.00;;;;;;5077275;28;20495;-65
2021/11/27 01:27:12;;;;;;;6.10;2.65;;;3.60;1.00;;;;;;5084690;28;20060;-65
2021/11/27 01:29:43;;;;;;;4.90;2.58;;;3.60;1.00;;;;;;5082107;28;20450;-65
2021/11/27 01:32:16;;;;;;;5.03;2.67;;;3.60;1.00;;;;;;5082918;28;20037;-65
2021/11/27 01:34:47;;;;;;;3.40;2.45;;;3.60;1.00;;;;;;5079047;28;20040;-65
2021/11/27 01:37:18;;;;;;;3.67;2.65;;;3.70;1.00;;;;;;5078923;28;20048;-65
2021/11/27 01:39:48;;;;;;;4.22;2.45;;;3.70;1.00;;;;;;5084349;28;20040;-65
2021/11/27 01:42:16;;;;;;;5.10;2.72;;;3.70;1.00;;;;;;5081312;28;20068;-65
2021/11/27 01:44:47;;;;;;;3.85;2.70;;;3.70;1.00;;;;;;5079049;28;20048;-65
2021/11/27 01:47:18;;;;;;;3.45;2.17;;;3.70;1.00;;;;;;5084043;28;20068;-65
2021/11/27 01:49:49;;;;;;;4.05;2.55;;;3.70;1.00;;;;;;5082767;28;20064;-64
2021/11/27 01:52:17;;;;;;;3.53;2.42;;;3.70;1.00;;;;;;5079789;28;20075;-64
2021/11/27 01:54:45;;;;;;;4.10;2.47;;;3.70;1.00;;;;;;5076221;28;20071;-65
2021/11/27 01:57:15;;;;;;;7.22;2.88;;;3.70;1.00;;;;;;5080967;28;20495;-64
2021/11/27 01:59:45;;;;;;;3.70;2.70;;;3.70;1.00;;;;;;5082862;28;20037;-64
2021/11/27 02:02:18;;;;;;;6.38;2.80;;;3.70;1.00;;;;;;5082139;28;20060;-66
2021/11/27 02:04:47;;;;;;;5.72;2.85;;;3.70;1.00;;;;;;5078757;28;20063;-65
2021/11/27 02:07:16;;;;;;;4.45;2.85;;;3.70;1.00;;;;;;5083861;28;20627;-64
2021/11/27 02:09:48;;;;;;;5.30;3.45;;;3.70;1.00;;;;;;5079761;28;20192;-64
2021/11/27 02:12:17;;;;;;;6.88;3.97;;;3.70;1.00;;;;;;5077855;28;20048;-64
2021/11/27 02:14:46;;;;;;;4.53;3.20;;;3.70;1.00;;;;;;5062945;28;20447;-64
2021/11/27 02:17:21;;;;;;;5.65;3.20;;;3.70;1.00;;;;;;5061203;28;20049;-64
2021/11/27 02:19:53;;;;;;;6.00;3.38;;;3.70;1.00;;;;;;5038651;28;20059;-65
2021/11/27 02:22:22;;;;;;;5.13;3.40;;;3.60;1.00;;;;;;5062611;28;20052;-65
2021/11/27 02:24:52;;;;;;;5.93;3.30;;;3.60;1.00;;;;;;5078140;28;20055;-65
2021/11/27 02:27:21;;;;;;;4.35;2.63;;;3.60;1.00;;;;;;5085182;28;20036;-64
2021/11/27 02:29:49;;;;;;;5.88;3.13;;;3.50;1.00;;;;;;5080644;28;20130;-64
2021/11/27 02:32:19;;;;;;;7.13;3.47;;;3.50;1.00;;;;;;5078526;28;20055;-64
2021/11/27 02:34:49;;;;;;;7.45;3.05;;;3.50;1.00;;;;;;5085447;28;20155;-64
2021/11/27 02:37:19;;;;;;;5.70;3.28;;;3.50;1.20;;;;;;5086734;28;20043;-64
2021/11/27 02:39:48;;;;;;;6.53;3.03;;;3.50;1.10;;;;;;5088457;28;20059;-64
2021/11/27 02:42:17;;;;;;;4.07;3.10;;;3.50;1.60;;;;;;5081658;28;20499;-64
2021/11/27 02:44:47;;;;;;;4.22;2.92;;;3.50;2.10;;;;;;5083357;28;20051;-64
2021/11/27 02:47:19;;;;;;;4.00;2.88;;;3.50;2.50;;;;;;5084009;28;20243;-64
2021/11/27 02:49:52;;;;;;;3.22;2.17;;;3.50;2.50;;;;;;5084729;28;20048;-65
2021/11/27 02:52:29;;;;;;;4.65;2.70;;;3.50;2.90;;;;;;5060622;28;20197;-65
2021/11/27 02:55:06;;;;;;;3.30;2.20;;;3.50;3.00;;;;;;5080898;28;20678;-65
2021/11/27 02:57:34;;;;;;;4.47;2.55;;;3.60;3.30;;;;;;5084885;28;20051;-65
2021/11/27 03:00:09;;;;;;;4.20;2.08;;;3.60;3.50;;;;;;5084060;28;20072;-65
2021/11/27 03:02:38;;;;;;;4.65;1.60;;;3.60;4.00;;;;;;5067395;28;20048;-65
2021/11/27 03:05:07;;;;;;;3.03;2.00;;;3.60;4.40;;;;;;5080453;28;20052;-65
2021/11/27 03:07:55;;;;;;;3.42;1.80;;;3.70;4.50;;;;;;5086220;28;20040;-65
2021/11/27 03:10:25;;;;;;;2.85;1.40;;;3.70;4.50;;;;;;5080998;28;20066;-65
2021/11/27 03:12:53;;;;;;;3.13;2.03;;;3.70;4.80;;;;;;5068201;28;20043;-65
2021/11/27 03:15:21;;;;;;;2.40;1.70;;;3.70;5.00;;;;;;5081469;28;20576;-65
2021/11/27 03:17:50;;;;;;;2.58;1.65;;;3.70;5.00;;;;;;5085001;28;20137;-65
2021/11/27 03:20:20;;;;;;;3.30;2.10;;;3.70;4.90;;;;;;5084306;28;20055;-65
2021/11/27 03:22:52;;;;;;;;;;;3.70;4.50;;;;;;5087198;28;20146;-65
2021/11/27 03:25:20;;;;;;;3.45;2.25;;;3.70;4.50;;;;;;5076865;28;20074;-65
2021/11/27 03:27:49;;;;;;;3.60;2.20;;;3.70;4.50;;;;;;5086701;28;20129;-65
2021/11/27 03:30:23;;;;;;;3.45;2.10;;;3.70;4.50;;;;;;5084451;28;20165;-65
2021/11/27 03:32:54;;;;;;;5.95;2.53;;;3.70;4.50;;;;;;5084661;28;20062;-65
2021/11/27 03:35:23;;;;;;;3.92;2.25;;;3.70;4.50;;;;;;5082560;28;20123;-65
2021/11/27 03:37:52;;;;;;;3.00;1.92;;;3.80;4.60;;;;;;5078105;28;20044;-66
2021/11/27 03:40:22;;;;;;;3.75;2.05;;;3.80;4.60;;;;;;5085501;28;20175;-65
2021/11/27 03:42:56;;;;;;;3.75;2.10;;;3.80;4.80;;;;;;5082148;28;20048;-65
2021/11/27 03:45:25;;;;;;;3.05;2.20;;;3.80;4.60;;;;;;5079148;28;20047;-65
2021/11/27 03:48:05;;;;;;;2.97;2.00;;;3.80;5.00;;;;;;5073298;28;20051;-65
2021/11/27 03:50:36;;;;;;;2.75;2.00;;;3.80;6.00;;;;;;5083936;28;20430;-65
2021/11/27 03:53:05;;;;;;;4.32;2.30;;;3.80;6.80;;;;;;5081069;28;20082;-65
2021/11/27 03:55:34;;;;;;;4.53;2.75;;;3.80;7.10;;;;;;5082378;28;20111;-65
2021/11/27 03:58:08;;;;;;;6.38;3.40;;;3.80;8.20;;;;;;5086091;28;20044;-65
2021/11/27 04:00:41;;;;;;;5.30;3.20;;;3.70;8.10;;;;;;5083869;28;20131;-65
2021/11/27 04:03:13;;;;;;;4.97;3.03;;;3.60;8.10;;;;;;5075119;28;20052;-64
2021/11/27 04:05:45;;;;;;;4.95;2.97;;;3.60;9.20;;;;;;5082718;28;20065;-64
2021/11/27 04:08:14;;;;;;;4.20;3.08;;;3.50;9.30;;;;;;5052018;28;20384;-64
2021/11/27 04:10:44;;;;;;;5.15;3.17;;;3.50;10.30;;;;;;5084635;28;20048;-65
2021/11/27 04:13:14;;;;;;;5.15;3.05;;;3.50;10.50;;;;;;5080750;28;20574;-65
2021/11/27 04:15:42;;;;;;;5.18;3.10;;;3.50;10.60;;;;;;5079608;28;20047;-64
2021/11/27 04:18:12;;;;;;;5.40;3.33;;;3.50;10.90;;;;;;5087526;28;20073;-65
2021/11/27 04:20:44;;;;;;;5.35;2.83;;;3.50;11.70;;;;;;5080990;28;20044;-64
2021/11/27 04:23:12;;;;;;;5.30;3.30;;;3.40;11.60;;;;;;5082732;28;20041;-63
2021/11/27 04:25:41;;;;;;;4.70;2.95;;;3.40;11.40;;;;;;5078868;28;20044;-65
2021/11/27 04:28:10;;;;;;;4.30;3.08;;;3.50;10.80;;;;;;5085140;28;20048;-64
2021/11/27 04:30:42;;;;;;;5.07;3.13;;;3.50;10.70;;;;;;5083508;28;20051;-64
2021/11/27 04:33:12;;;;;;;4.88;2.65;;;3.40;10.90;;;;;;5081569;28;20494;-64
2021/11/27 04:35:41;;;;;;;6.22;2.97;;;3.50;10.60;;;;;;5077749;28;20119;-64
2021/11/27 04:38:13;;;;;;;4.63;2.85;;;3.40;10.20;;;;;;5083553;28;20113;-64
2021/11/27 04:40:42;;;;;;;4.85;3.08;;;3.40;10.60;;;;;;5079884;28;20047;-64
2021/11/27 04:43:11;;;;;;;4.05;2.80;;;3.50;10.00;;;;;;5084126;28;20040;-64
2021/11/27 04:45:45;;;;;;;4.82;3.08;;;3.50;10.40;;;;;;5079850;28;20087;-64
2021/11/27 04:48:16;;;;;;;3.33;2.45;;;3.40;9.70;;;;;;5083316;28;20407;-64
2021/11/27 04:50:46;;;;;;;3.30;2.35;;;3.50;10.30;;;;;;5077261;28;20049;-65
2021/11/27 04:53:15;;;;;;;4.57;2.60;;;3.50;10.10;;;;;;5086211;28;20494;-64
2021/11/27 04:55:48;;;;;;;3.80;2.55;;;3.50;10.50;;;;;;5079427;28;20106;-64
2021/11/27 04:58:19;;;;;;;3.75;2.38;;;3.50;10.70;;;;;;5084399;28;20539;-64
2021/11/27 05:00:52;;;;;;;5.28;2.47;;;3.50;11.00;;;;;;5082377;28;20131;-65
2021/11/27 05:03:26;;;;;;;5.03;2.58;;;3.50;10.90;;;;;;5081846;28;20032;-64
2021/11/27 05:05:54;;;;;;;4.55;2.83;;;3.40;11.40;;;;;;5080825;28;20503;-64
2021/11/27 05:08:22;;;;;;;4.15;2.47;;;3.50;11.30;;;;;;5082675;28;20130;-64
2021/11/27 05:10:51;;;;;;;3.40;2.08;;;3.50;11.60;;;;;;5079769;28;20105;-64
2021/11/27 05:13:24;;;;;;;3.92;2.35;;;3.50;11.60;;;;;;5083257;28;20753;-65
2021/11/27 05:15:56;;;;;;;3.40;2.22;;;3.50;11.60;;;;;;5079234;28;20059;-64
2021/11/27 05:18:24;;;;;;;4.05;2.25;;;3.50;11.60;;;;;;5083796;28;20044;-64
2021/11/27 05:21:03;;;;;;;3.08;1.88;;;3.40;12.10;;;;;;5079541;28;20054;-64
2021/11/27 05:23:32;;;;;;;2.67;1.70;;;3.40;12.40;;;;;;5084848;28;20067;-65
2021/11/27 05:26:02;;;;;;;4.20;2.10;;;3.40;12.70;;;;;;5076930;28;20044;-64
2021/11/27 05:28:33;;;;;;;3.13;2.05;;;3.50;12.70;;;;;;5084947;28;20128;-64
2021/11/27 05:31:04;;;;;;;2.25;1.75;;;3.40;12.80;;;;;;5080252;28;20163;-64
2021/11/27 05:33:47;;;;;;;3.60;1.85;;;3.40;13.20;;;;;;5084123;28;20163;-64
2021/11/27 05:36:21;;;;;;;4.55;1.83;;;3.50;13.20;;;;;;5082286;28;20044;-64
2021/11/27 05:38:49;;;;;;;3.03;1.75;;;3.50;13.30;;;;;;5082070;28;20229;-64
2021/11/27 05:41:19;;;;;;;2.88;1.52;;;3.40;13.40;;;;;;5080695;28;20403;-65
2021/11/27 05:43:51;;;;;;;3.53;2.10;;;3.40;13.60;;;;;;5081994;28;20077;-64
2021/11/27 05:46:23;;;;;;;1.83;1.40;;;3.50;13.60;;;;;;5081950;28;20510;-64
2021/11/27 05:48:51;;;;;;;2.13;1.20;;;3.50;13.60;;;;;;5080928;28;20040;-65
2021/11/27 05:51:19;;;;;;;2.85;1.75;;;3.40;13.70;;;;;;5079721;28;20522;-65
2021/11/27 05:53:52;;;;;;;2.83;1.40;;;3.50;14.00;;;;;;5080933;28;20219;-64
2021/11/27 05:56:19;;;;;;;2.38;1.50;;;3.50;14.30;;;;;;5079392;28;20051;-64
2021/11/27 05:58:48;;;;;;;2.80;1.90;;;3.40;14.40;;;;;;5085022;28;20050;-64
2021/11/27 06:01:16;;;;;;;1.90;1.17;;;3.50;15.00;;;;;;5080005;28;20507;-64
2021/11/27 06:03:51;;;;;;;2.97;1.42;;;3.50;14.70;;;;;;5077861;28;20389;-64
2021/11/27 06:06:19;;;;;;;1.98;1.25;;;3.50;14.40;;;;;;5083712;28;20054;-65
2021/11/27 06:08:47;;;;;;;1.60;1.10;;;3.50;14.20;;;;;;5082706;28;20070;-63
2021/11/27 06:11:15;;;;;;;2.58;1.40;;;3.50;14.50;;;;;;5084472;28;20117;-63
2021/11/27 06:13:44;;;;;;;2.20;1.38;;;3.50;14.40;;;;;;5085913;28;20092;-63
2021/11/27 06:16:12;;;;;;;1.45;1.15;;;3.60;14.70;;;;;;5083731;28;20133;-63
2021/11/27 06:18:43;;;;;;;1.45;0.80;;;3.60;14.20;;;;;;5086879;28;20040;-64
2021/11/27 06:21:13;;;;;;;2.72;1.15;;;3.60;14.40;;;;;;5084284;28;20051;-65
2021/11/27 06:23:41;;;;;;;1.40;0.82;;;3.60;14.70;;;;;;5084057;28;20055;-65
2021/11/27 06:26:15;;;;;;;1.77;1.00;;;3.60;15.20;;;;;;5085116;28;20086;-63
2021/11/27 06:28:44;;;;;;;1.48;0.88;;;3.60;15.20;;;;;;5083410;28;20048;-64
2021/11/27 06:31:15;;;;;;;2.88;1.13;;;3.60;15.20;;;;;;5083533;28;20051;-64
2021/11/27 06:33:46;;;;;;;1.02;0.73;;;3.60;15.80;;;;;;5087133;28;20380;-65
2021/11/27 06:36:19;;;;;;;1.63;0.95;;;3.60;15.20;;;;;;5081680;28;20131;-62
2021/11/27 06:38:47;;;;;;;1.88;0.95;;;3.60;15.30;;;;;;5086158;28;20037;-65
2021/11/27 06:41:17;;;;;;;2.15;1.30;;;3.60;15.20;;;;;;5082369;28;20123;-64
2021/11/27 06:43:50;;;;;;;1.10;0.70;;;3.60;15.20;;;;;;5084022;28;20166;-65
2021/11/27 06:46:18;;;;;;;1.35;0.90;;;3.60;15.20;;;;;;5086385;28;20495;-65
2021/11/27 06:48:47;;;;;;;2.03;1.08;;;3.60;15.20;;;;;;5085189;28;20712;-64
2021/11/27 06:51:19;;;;;;;0.93;0.60;;;3.50;15.40;;;;;;5083453;28;20052;-64
2021/11/27 06:53:51;;;;;;;2.50;1.02;;;3.50;15.90;;;;;;5086320;28;20558;-65
2021/11/27 06:56:19;;;;;;;1.23;0.90;;;3.60;15.40;;;;;;5083483;28;20048;-63
2021/11/27 06:58:52;;;;;;;1.42;1.02;;;3.60;15.40;;;;;;5083936;28;20059;-64
2021/11/27 07:01:21;;;;;;;1.38;0.93;;;3.60;15.20;;;;;;5084448;28;21882;-64
2021/11/27 07:03:51;;;;;;;1.48;0.80;;;3.60;15.20;;;;;;5083670;28;20044;-64
2021/11/27 07:06:20;;;;;;;1.35;0.90;;;3.60;15.20;;;;;;5084438;28;20052;-64
2021/11/27 07:08:50;;;;;;;1.00;0.70;;;3.60;15.20;;;;;;5086277;28;20400;-65
2021/11/27 07:11:18;;;;;;;0.73;0.63;;;3.60;15.20;;;;;;5080459;28;20056;-64
2021/11/27 07:13:46;;;;;;;2.65;0.80;;;3.60;15.20;;;;;;5086147;28;20123;-63
2021/11/27 07:16:13;;;;;;;2.70;1.20;;;3.60;15.30;;;;;;5084169;28;20044;-63
2021/11/27 07:18:44;;;;;;;2.97;0.88;;;3.60;15.30;;;;;;5083197;28;20048;-66
2021/11/27 07:21:16;;;;;;;2.03;1.33;;;3.60;15.20;;;;;;5085494;28;20093;-64
2021/11/27 07:23:45;;;;;;;1.38;0.80;;;3.60;15.20;;;;;;5086586;28;20519;-64
2021/11/27 07:26:21;;;;;;;;;;;3.70;15.30;;;;;;5081105;28;20048;-65
2021/11/27 07:28:53;;;;;;;2.75;0.98;;;3.70;15.10;;;;;;5086894;28;19928;-63
2021/11/27 07:31:25;;;;;;;1.75;1.25;;;3.70;14.60;;;;;;5082771;28;20052;-65
2021/11/27 07:33:56;;;;;;;2.15;1.00;;;3.70;14.30;;;;;;5065622;28;20075;-65
2021/11/27 07:36:30;;;;;;;1.05;0.68;;;3.80;14.30;;;;;;5074119;28;20518;-64
2021/11/27 07:39:14;;;;;;;1.33;0.95;;;3.80;13.80;;;;;;5087888;28;20058;-64
2021/11/27 07:41:44;;;;;;;6.30;1.00;;;3.80;13.70;;;;;;5074448;28;20124;-62
2021/11/27 07:44:13;;;;;;;1.17;0.80;;;3.80;13.60;;;;;;5082478;28;20788;-63
2021/11/27 07:46:47;;;;;;;2.08;1.17;;;3.80;13.40;;;;;;5086958;28;20163;-64
2021/11/27 07:49:17;;;;;;;0.98;0.80;;;3.80;13.70;;;;;;5084423;28;20454;-64
2021/11/27 07:51:47;;;;;;;1.45;1.00;;;3.80;13.80;;;;;;5081371;28;20048;-64
2021/11/27 07:54:19;;;;;;;1.20;0.90;;;3.80;13.80;;;;;;5082787;28;20052;-63
2021/11/27 07:56:52;;;;;;;3.78;0.93;;;3.80;14.20;;;;;;5077928;28;20059;-63
2021/11/27 07:59:25;;;;;;;1.33;0.98;;;3.80;14.40;;;;;;5083255;28;20127;-64
2021/11/27 08:01:53;;;;;;;7.50;1.35;;;3.70;14.40;;;;;;5086017;28;20127;-65
2021/11/27 08:04:27;;;;;;;1.23;0.98;;;3.70;14.70;;;;;;5078448;28;20057;-64
2021/11/27 08:06:55;;;;;;;3.13;1.40;;;3.70;14.50;;;;;;5085378;28;20049;-63
2021/11/27 08:09:30;;;;;;;2.42;1.42;;;3.60;15.20;;;;;;5078687;28;20094;-65
2021/11/27 08:11:57;;;;;;;2.78;1.40;;;3.60;14.80;;;;;;5081463;28;20561;-64
2021/11/27 08:14:31;;;;;;;2.63;1.23;;;3.70;14.60;;;;;;5082990;28;20094;-64
2021/11/27 08:17:00;;;;;;;4.35;1.58;;;3.70;14.70;;;;;;5083768;28;20040;-65
2021/11/27 08:19:29;;;;;;;3.00;1.30;;;3.70;14.70;;;;;;5083544;28;20118;-64
2021/11/27 08:21:57;;;;;;;1.98;1.30;;;3.70;14.40;;;;;;5082402;28;20040;-64
2021/11/27 08:24:26;;;;;;;2.65;0.93;;;3.80;15.20;;;;;;5084155;28;20126;-63
2021/11/27 08:26:57;;;;;;;1.33;1.00;;;3.90;14.30;;;;;;5081536;28;20036;-65
2021/11/27 08:29:30;;;;;;;3.38;1.45;;;4.00;13.40;;;;;;5084635;28;20119;-64
2021/11/27 08:31:58;;;;;;;2.10;1.10;;;4.10;12.30;;;;;;5077701;28;20104;-65
2021/11/27 08:34:26;;;;;;;1.52;1.02;;;4.20;12.10;;;;;;5081547;28;20039;-64
2021/11/27 08:36:57;;;;;;;1.90;1.30;;;4.30;12.10;;;;;;5082949;28;20060;-64
2021/11/27 08:39:25;;;;;;;1.83;1.15;;;4.30;11.40;;;;;;5081666;28;20454;-63
2021/11/27 08:41:58;;;;;;;1.10;1.00;;;4.30;11.30;;;;;;5078699;28;20721;-64
2021/11/27 08:44:28;;;;;;;2.35;1.23;;;4.40;11.60;;;;;;5082260;28;20047;-63
2021/11/27 08:46:57;;;;;;;2.08;1.48;;;4.40;11.10;;;;;;5080849;28;20032;-65
2021/11/27 08:49:29;;;;;;;2.65;1.48;;;4.60;12.10;;;;;;5079975;28;20044;-65
2021/11/27 08:51:57;;;;;;;3.25;1.38;;;4.70;11.50;;;;;;5084459;28;20071;-64
2021/11/27 08:54:32;;;;;;;1.75;1.40;;;4.70;10.70;;;;;;5080911;28;20453;-65
2021/11/27 08:57:01;;;;;;;3.03;1.10;;;4.60;10.60;;;;;;5082797;28;20816;-64
2021/11/27 08:59:31;;;;;;;5.10;1.40;;;4.70;10.30;;;;;;5082909;28;20427;-64
2021/11/27 09:01:59;;;;;;;4.15;1.45;;;4.80;10.10;;;;;;5077221;28;20043;-64
2021/11/27 09:04:29;;;;;;;3.15;1.50;;;4.80;9.80;;;;;;5078659;28;20048;-64
2021/11/27 09:06:57;;;;;;;3.22;2.08;;;4.90;9.50;;;;;;5084476;28;20112;-65
2021/11/27 09:09:28;;;;;;;3.17;1.63;;;4.90;8.90;;;;;;5079528;28;20931;-65
2021/11/27 09:11:56;;;;;;;3.85;1.88;;;5.00;9.00;;;;;;5077568;28;20081;-64
2021/11/27 09:14:32;;;;;;;3.42;1.85;;;5.00;9.00;;;;;;5081724;28;20046;-64
2021/11/27 09:17:00;;;;;;;2.22;1.65;;;5.00;9.00;;;;;;5079629;28;20738;-66
2021/11/27 09:19:32;;;;;;;5.13;1.60;;;5.00;8.30;;;;;;5084320;28;20453;-66
2021/11/27 09:22:05;;;;;;;2.72;1.70;;;5.00;8.00;;;;;;5078822;28;20117;-64
2021/11/27 09:24:38;;;;;;;2.33;1.65;;;4.90;8.40;;;;;;5077371;28;20675;-64
2021/11/27 09:27:08;;;;;;;2.20;1.55;;;4.90;8.90;;;;;;5082473;28;20040;-65
2021/11/27 09:29:40;;;;;;;2.00;1.33;;;4.90;8.90;;;;;;5080740;28;20044;-65
2021/11/27 09:32:09;;;;;;;2.13;1.40;;;4.90;9.00;;;;;;5078845;28;20124;-64
2021/11/27 09:34:44;;;;;;;4.70;1.70;;;4.90;8.90;;;;;;5078641;28;20067;-64
2021/11/27 09:37:17;;;;;;;2.38;1.48;;;5.00;9.00;;;;;;5086246;28;20348;-65
2021/11/27 09:39:47;;;;;;;1.95;1.10;;;4.80;8.80;;;;;;5078746;28;20032;-65
2021/11/27 09:42:16;;;;;;;2.70;1.55;;;4.90;8.90;;;;;;5084322;28;20456;-65
2021/11/27 09:44:50;;;;;;;3.17;1.85;;;4.80;9.60;;;;;;5088772;28;20044;-65
2021/11/27 09:47:24;;;;;;;4.28;1.52;;;4.80;10.60;;;;;;5084800;28;20040;-64
2021/11/27 09:49:56;;;;;;;1.98;1.70;;;4.70;11.10;;;;;;5089755;28;20100;-65
2021/11/27 09:52:28;;;;;;;1.83;1.60;;;4.80;11.80;;;;;;5078757;28;20045;-65
2021/11/27 09:54:58;;;;;;;2.40;2.17;;;4.80;12.50;;;;;;5084907;28;20040;-64
2021/11/27 09:57:26;;;;;;;3.25;1.95;;;4.80;11.80;;;;;;5087747;28;20040;-64
2021/11/27 09:59:55;;;;;;;2.22;1.77;;;4.80;12.50;;;;;;5083071;28;20056;-65
2021/11/27 10:02:28;;;;;;;2.55;1.73;;;4.90;13.00;;;;;;5080853;28;20145;-65
2021/11/27 10:05:23;;;;;;;3.30;2.00;;;5.00;13.20;;;;;;5086525;28;20039;-65
2021/11/27 10:07:52;;;;;;;2.88;1.65;;;5.10;13.60;;;;;;5085576;28;20047;-65
2021/11/27 10:10:21;;;;;;;3.92;2.00;;;5.10;12.60;;;;;;5086076;28;20050;-65
2021/11/27 10:12:51;;;;;;;2.90;1.60;;;5.30;13.40;;;;;;5086507;28;20135;-64
2021/11/27 10:15:20;;;;;;;2.50;1.42;;;5.30;12.00;;;;;;5081404;28;20102;-64
2021/11/27 10:17:55;;;;;;;1.95;1.48;;;5.50;11.50;;;;;;5083490;28;20059;-65
2021/11/27 10:20:24;;;;;;;1.80;1.25;;;5.60;10.70;;;;;;5086887;28;20044;-65
2021/11/27 10:22:53;;;;;;;2.45;1.17;;;5.70;9.40;;;;;;5082377;28;20499;-65
2021/11/27 10:25:29;;;;;;;3.08;1.52;;;5.70;7.80;;;;;;5084539;28;20040;-66
2021/11/27 10:28:06;;;;;;;4.05;1.38;;;5.80;7.40;;;;;;5087100;28;20131;-64
2021/11/27 10:30:52;;;;;;;2.78;1.23;;;5.90;7.30;;;;;;5060538;28;20091;-65
2021/11/27 10:33:24;;;;;;;4.97;1.08;;;5.90;6.60;;;;;;5082487;28;20538;-65
2021/11/27 10:35:55;;;;;;;1.20;1.00;;;5.80;5.80;;;;;;5081058;28;20040;-65
2021/11/27 10:38:35;;;;;;;4.30;1.42;;;5.90;5.80;;;;;;5083963;28;20056;-65
2021/11/27 10:41:08;;;;;;;3.30;1.30;;;6.00;5.40;;;;;;5081236;28;20055;-65
2021/11/27 10:43:59;;;;;;;3.30;1.05;;;6.10;5.00;;;;;;5086682;28;20036;-65
2021/11/27 10:46:30;;;;;;;2.42;1.30;;;6.30;4.50;;;;;;5080673;28;20541;-65
2021/11/27 10:49:04;;;;;;;3.10;1.20;;;6.40;2.90;;;;;;5085555;28;20056;-65
2021/11/27 10:51:33;;;;;;;3.15;1.33;;;6.40;2.80;;;;;;5083451;28;20075;-64
2021/11/27 10:54:03;;;;;;;3.35;0.90;;;6.20;2.40;;;;;;5080202;28;20087;-65
2021/11/27 10:56:42;;;;;;;1.70;1.10;;;6.10;1.40;;;;;;5083475;28;20069;-64
2021/11/27 10:59:17;;;;;;;2.03;0.80;;;6.10;1.70;;;;;;5086488;28;20116;-65
2021/11/27 11:02:08;;;;;;;4.00;1.17;;;6.10;1.60;;;;;;5082670;28;20048;-65
2021/11/27 11:05:10;;;;;;;1.45;0.98;;;6.10;1.10;;;;;;5083169;28;20613;-65
2021/11/27 11:07:53;;;;;;;3.30;1.17;;;6.10;1.00;;;;;;5086280;28;20133;-64
2021/11/27 11:10:25;;;;;;;1.17;1.02;;;6.00;1.20;;;;;;5084498;28;20093;-65
2021/11/27 11:12:55;;;;;;;2.80;1.20;;;6.00;2.00;;;;;;5077180;28;20472;-65
2021/11/27 11:15:27;;;;;;;4.93;1.20;;;6.10;1.90;;;;;;5082683;28;20036;-64
2021/11/27 11:18:18;;;;;;;3.10;1.08;;;5.90;2.20;;;;;;5086076;28;20067;-64
2021/11/27 11:20:48;;;;;;;1.52;1.15;;;5.90;2.20;;;;;;5082599;28;20549;-64
2021/11/27 11:23:23;;;;;;;4.10;1.48;;;5.90;2.20;;;;;;5086719;28;20044;-65
2021/11/27 11:26:10;;;;;;;2.95;1.33;;;5.90;2.20;;;;;;5083458;28;20048;-64
2021/11/27 11:28:48;;;;;;;2.58;1.02;;;5.80;2.60;;;;;;5084036;28;20131;-64
2021/11/27 11:31:21;;;;;;;2.20;1.20;;;5.70;2.20;;;;;;5082430;28;20044;-65
2021/11/27 11:33:52;;;;;;;3.13;1.52;;;5.80;2.10;;;;;;5083031;28;20134;-66
2021/11/27 11:36:28;;;;;;;5.32;1.17;;;5.60;3.50;;;;;;5088781;28;20044;-67
2021/11/27 11:39:00;;;;;;;1.17;0.60;;;5.20;9.50;;;;;;5073706;28;20036;-66
2021/11/27 11:41:29;;;;;;;1.05;0.77;;;4.60;14.50;;;;;;5081387;28;20047;-65
2021/11/27 11:43:59;;;;;;;0.90;0.52;;;4.50;16.00;;;;;;5081522;28;20044;-64
2021/11/27 11:46:27;;;;;;;1.30;0.73;;;4.30;15.70;;;;;;5083096;28;20039;-65
2021/11/27 11:48:59;;;;;;;0.77;0.43;;;4.00;19.00;;;;;;5082331;28;20398;-65
2021/11/27 11:51:47;;;;;;;1.25;0.60;;;3.40;24.20;;;;;;5080477;28;20073;-65
2021/11/27 11:54:24;;;;;;;1.08;0.65;;;3.20;28.60;;;;;;5083627;28;20050;-65
2021/11/27 11:57:04;;;;;;;1.65;1.00;;;3.00;29.90;;;;;;5078258;28;20131;-66
2021/11/27 11:59:37;;;;;;;1.83;0.70;;;2.90;33.30;;;;;;5077408;28;20253;-64
2021/11/27 12:02:14;;;;;;;3.10;1.27;;;2.90;36.10;;;;;;5082231;28;20040;-65
2021/11/27 12:05:14;;;;;;;1.88;0.95;;;3.00;36.40;;;;;;5088263;28;20040;-65
2021/11/27 12:07:50;;;;;;;2.20;1.00;;;3.20;37.20;;;;;;5084012;28;20458;-66
2021/11/27 12:10:43;;;;;;;2.35;1.30;;;3.40;34.40;;;;;;5079096;28;20043;-65
2021/11/27 12:13:17;;;;;;;3.40;0.93;;;3.60;34.40;;;;;;5078145;28;20036;-65
2021/11/27 12:15:47;;;;;;;3.10;1.15;;;3.50;33.60;;;;;;5081815;28;20388;-65
2021/11/27 12:18:21;;;;;;;3.83;0.80;;;3.70;37.10;;;;;;5082329;28;20037;-64
2021/11/27 12:20:53;;;;;;;4.15;1.48;;;3.50;34.10;;;;;;5083002;28;20082;-67
2021/11/27 12:23:37;;;;;;;2.53;1.65;;;3.50;36.20;;;;;;5083712;28;20047;-65
2021/11/27 12:26:24;;;;;;;2.83;1.33;;;3.70;35.80;;;;;;5078874;28;20075;-66
2021/11/27 12:29:12;;;;;;;3.15;1.55;;;3.70;35.60;;;;;;5081156;28;20036;-64
2021/11/27 12:31:53;;;;;;;1.98;1.10;;;3.90;34.30;;;;;;5057248;28;20097;-65
2021/11/27 12:34:32;;;;;;;2.20;1.50;;;3.70;32.80;;;;;;5083653;28;20044;-64
2021/11/27 12:37:24;;;;;;;;;;;3.80;34.50;;;;;;5079818;28;20415;-65
2021/11/27 12:39:57;;;;;;;1.13;1.00;;;3.80;35.00;;;;;;5085068;28;20399;-66
2021/11/27 12:42:34;;;;;;;1.58;0.90;;;3.80;33.60;;;;;;5081285;28;20114;-66
2021/11/27 12:45:05;;;;;;;2.08;1.35;;;3.80;33.70;;;;;;5079059;28;20047;-66
2021/11/27 12:47:41;;;;;;;2.00;1.15;;;3.80;33.10;;;;;;5079396;28;20488;-64
2021/11/27 12:50:18;;;;;;;1.70;1.02;;;3.90;32.90;;;;;;5081532;28;20059;-64
2021/11/27 12:52:49;;;;;;;2.30;1.40;;;3.80;30.90;;;;;;5078616;28;20392;-66
2021/11/27 12:55:37;;;;;;;2.45;1.83;;;3.90;31.30;;;;;;5081603;28;20056;-66
2021/11/27 12:58:35;;;;;;;1.85;1.33;;;3.80;31.40;;;;;;5081605;28;20040;-66
2021/11/27 13:01:08;;;;;;;2.38;1.35;;;3.80;31.20;;;;;;5074182;28;20078;-66
2021/11/27 13:03:40;;;;;;;2.70;1.73;;;3.80;30.90;;;;;;5080897;28;20040;-66
2021/11/27 13:06:08;;;;;;;3.15;1.45;;;3.80;30.70;;;;;;5079489;28;20052;-66
2021/11/27 13:08:39;;;;;;;4.30;1.80;;;3.90;31.30;;;;;;5080801;28;20408;-66
2021/11/27 13:11:15;;;;;;;3.25;2.10;;;3.70;30.80;;;;;;5082952;28;20045;-65
2021/11/27 13:13:46;;;;;;;2.63;2.00;;;3.60;32.70;;;;;;5082593;28;20508;-66
2021/11/27 13:16:18;;;;;;;3.20;2.00;;;3.70;34.50;;;;;;5080171;28;20164;-66
2021/11/27 13:18:52;;;;;;;3.17;2.08;;;3.50;32.70;;;;;;5077113;28;20560;-66
2021/11/27 13:21:26;;;;;;;2.65;2.22;;;3.30;31.60;;;;;;5055667;28;20056;-66
2021/11/27 13:23:58;;;;;;;3.92;2.70;;;3.00;30.90;;;;;;5076037;28;20052;-66
2021/11/27 13:26:31;;;;;;;5.18;2.92;;;2.90;32.80;;;;;;5074480;28;20081;-66
2021/11/27 13:29:00;;;;;;;3.35;2.78;;;2.80;34.40;;;;;;5055935;28;20036;-66